sensor_id;sensor_type;location;lat;lon;timestamp;P1;durP1;ratioP1;P2;durP2;ratioP2
23290;SDS011;11814;44.686;10.842;2022-08-19T00:00:23;28.48;;;25.50;;
23290;SDS011;11814;44.686;10.842;2022-08-19T00:02:49;35.42;;;31.25;;
23290;SDS011;11814;44.686;10.842;2022-08-19T00:05:15;40.35;;;32.38;;
23290;SDS011;11814;44.686;10.842;2022-08-19T00:07:41;39.92;;;34.72;;
23290;SDS011;11814;44.686;10.842;2022-08-19T00:10:08;40.45;;;34.85;;
23290;SDS011;11814;44.686;10.842;2022-08-19T00:12:36;41.20;;;34.42;;
23290;SDS011;11814;44.686;10.842;2022-08-19T00:15:03;43.88;;;36.53;;
23290;SDS011;11814;44.686;10.842;2022-08-19T00:17:30;42.63;;;37.33;;
23290;SDS011;11814;44.686;10.842;2022-08-19T00:19:56;47.38;;;38.22;;
23290;SDS011;11814;44.686;10.842;2022-08-19T00:22:21;39.17;;;32.85;;
23290;SDS011;11814;44.686;10.842;2022-08-19T00:24:47;39.05;;;31.08;;
23290;SDS011;11814;44.686;10.842;2022-08-19T00:27:13;37.53;;;29.25;;
23290;SDS011;11814;44.686;10.842;2022-08-19T00:29:39;32.60;;;25.05;;
23290;SDS011;11814;44.686;10.842;2022-08-19T00:32:05;28.35;;;23.42;;
23290;SDS011;11814;44.686;10.842;2022-08-19T00:34:31;29.08;;;25.13;;
23290;SDS011;11814;44.686;10.842;2022-08-19T00:36:57;24.95;;;21.13;;
23290;SDS011;11814;44.686;10.842;2022-08-19T00:39:24;31.90;;;22.42;;
23290;SDS011;11814;44.686;10.842;2022-08-19T00:41:50;22.58;;;18.80;;
23290;SDS011;11814;44.686;10.842;2022-08-19T00:44:17;24.77;;;16.75;;
23290;SDS011;11814;44.686;10.842;2022-08-19T00:46:48;22.80;;;16.33;;
23290;SDS011;11814;44.686;10.842;2022-08-19T00:51:53;20.90;;;10.73;;
23290;SDS011;11814;44.686;10.842;2022-08-19T00:54:25;17.70;;;9.70;;
23290;SDS011;11814;44.686;10.842;2022-08-19T00:56:52;17.17;;;8.68;;
23290;SDS011;11814;44.686;10.842;2022-08-19T00:59:18;23.08;;;7.93;;
23290;SDS011;11814;44.686;10.842;2022-08-19T01:01:45;20.40;;;8.00;;
23290;SDS011;11814;44.686;10.842;2022-08-19T01:04:11;14.38;;;6.55;;
23290;SDS011;11814;44.686;10.842;2022-08-19T01:06:38;15.52;;;5.80;;
23290;SDS011;11814;44.686;10.842;2022-08-19T01:09:06;20.02;;;5.90;;
23290;SDS011;11814;44.686;10.842;2022-08-19T01:11:33;20.55;;;6.07;;
23290;SDS011;11814;44.686;10.842;2022-08-19T01:14:04;10.48;;;4.53;;
23290;SDS011;11814;44.686;10.842;2022-08-19T01:16:30;12.80;;;4.72;;
23290;SDS011;11814;44.686;10.842;2022-08-19T01:18:58;12.07;;;5.35;;
23290;SDS011;11814;44.686;10.842;2022-08-19T01:21:42;10.90;;;4.82;;
23290;SDS011;11814;44.686;10.842;2022-08-19T01:24:14;13.45;;;4.80;;
23290;SDS011;11814;44.686;10.842;2022-08-19T01:26:41;11.38;;;4.78;;
23290;SDS011;11814;44.686;10.842;2022-08-19T01:29:08;9.00;;;4.50;;
23290;SDS011;11814;44.686;10.842;2022-08-19T01:31:35;7.72;;;3.53;;
23290;SDS011;11814;44.686;10.842;2022-08-19T01:34:02;12.57;;;4.30;;
23290;SDS011;11814;44.686;10.842;2022-08-19T01:36:30;10.13;;;4.57;;
23290;SDS011;11814;44.686;10.842;2022-08-19T01:39:08;10.48;;;3.80;;
23290;SDS011;11814;44.686;10.842;2022-08-19T01:41:36;10.18;;;4.25;;
23290;SDS011;11814;44.686;10.842;2022-08-19T01:44:02;7.38;;;3.67;;
23290;SDS011;11814;44.686;10.842;2022-08-19T01:46:29;12.27;;;4.32;;
23290;SDS011;11814;44.686;10.842;2022-08-19T01:48:56;13.68;;;4.90;;
23290;SDS011;11814;44.686;10.842;2022-08-19T01:51:22;10.68;;;4.43;;
23290;SDS011;11814;44.686;10.842;2022-08-19T01:53:48;13.57;;;4.38;;
23290;SDS011;11814;44.686;10.842;2022-08-19T01:56:15;12.82;;;4.78;;
23290;SDS011;11814;44.686;10.842;2022-08-19T01:58:43;13.23;;;4.72;;
23290;SDS011;11814;44.686;10.842;2022-08-19T02:01:15;10.27;;;4.50;;
23290;SDS011;11814;44.686;10.842;2022-08-19T02:03:42;11.50;;;4.28;;
23290;SDS011;11814;44.686;10.842;2022-08-19T02:06:07;9.73;;;4.72;;
23290;SDS011;11814;44.686;10.842;2022-08-19T02:08:35;12.98;;;4.18;;
23290;SDS011;11814;44.686;10.842;2022-08-19T02:11:03;10.52;;;4.40;;
23290;SDS011;11814;44.686;10.842;2022-08-19T02:13:30;10.25;;;4.43;;
23290;SDS011;11814;44.686;10.842;2022-08-19T02:15:56;7.97;;;4.57;;
23290;SDS011;11814;44.686;10.842;2022-08-19T02:18:22;8.60;;;3.83;;
23290;SDS011;11814;44.686;10.842;2022-08-19T02:20:48;12.25;;;4.65;;
23290;SDS011;11814;44.686;10.842;2022-08-19T02:23:15;11.00;;;4.30;;
23290;SDS011;11814;44.686;10.842;2022-08-19T02:25:42;7.95;;;4.55;;
23290;SDS011;11814;44.686;10.842;2022-08-19T02:28:09;10.30;;;4.97;;
23290;SDS011;11814;44.686;10.842;2022-08-19T02:30:36;13.75;;;5.05;;
23290;SDS011;11814;44.686;10.842;2022-08-19T02:33:03;10.27;;;5.35;;
23290;SDS011;11814;44.686;10.842;2022-08-19T02:35:29;10.13;;;5.40;;
23290;SDS011;11814;44.686;10.842;2022-08-19T02:37:56;13.57;;;5.30;;
23290;SDS011;11814;44.686;10.842;2022-08-19T02:40:40;12.10;;;5.93;;
23290;SDS011;11814;44.686;10.842;2022-08-19T02:43:14;14.07;;;5.55;;
23290;SDS011;11814;44.686;10.842;2022-08-19T02:45:40;8.73;;;4.65;;
23290;SDS011;11814;44.686;10.842;2022-08-19T02:48:06;11.35;;;5.35;;
23290;SDS011;11814;44.686;10.842;2022-08-19T02:50:33;11.30;;;4.93;;
23290;SDS011;11814;44.686;10.842;2022-08-19T02:53:03;10.70;;;3.63;;
23290;SDS011;11814;44.686;10.842;2022-08-19T02:55:29;7.75;;;3.40;;
23290;SDS011;11814;44.686;10.842;2022-08-19T02:57:55;9.18;;;3.22;;
23290;SDS011;11814;44.686;10.842;2022-08-19T03:00:22;9.88;;;3.13;;
23290;SDS011;11814;44.686;10.842;2022-08-19T03:02:49;10.23;;;3.10;;
23290;SDS011;11814;44.686;10.842;2022-08-19T03:05:14;10.38;;;3.15;;
23290;SDS011;11814;44.686;10.842;2022-08-19T03:07:40;7.32;;;2.67;;
23290;SDS011;11814;44.686;10.842;2022-08-19T03:10:06;4.35;;;2.08;;
23290;SDS011;11814;44.686;10.842;2022-08-19T03:12:34;7.93;;;2.15;;
23290;SDS011;11814;44.686;10.842;2022-08-19T03:15:01;7.65;;;2.05;;
23290;SDS011;11814;44.686;10.842;2022-08-19T03:17:27;4.40;;;1.98;;
23290;SDS011;11814;44.686;10.842;2022-08-19T03:19:53;5.80;;;1.63;;
23290;SDS011;11814;44.686;10.842;2022-08-19T03:22:19;7.95;;;1.70;;
23290;SDS011;11814;44.686;10.842;2022-08-19T03:24:44;7.18;;;1.60;;
23290;SDS011;11814;44.686;10.842;2022-08-19T03:27:10;4.95;;;1.50;;
23290;SDS011;11814;44.686;10.842;2022-08-19T03:29:37;5.00;;;1.30;;
23290;SDS011;11814;44.686;10.842;2022-08-19T03:32:04;7.25;;;1.58;;
23290;SDS011;11814;44.686;10.842;2022-08-19T03:34:31;5.57;;;2.00;;
23290;SDS011;11814;44.686;10.842;2022-08-19T03:37:03;5.40;;;1.80;;
23290;SDS011;11814;44.686;10.842;2022-08-19T03:39:31;6.93;;;1.85;;
23290;SDS011;11814;44.686;10.842;2022-08-19T03:41:57;6.88;;;1.77;;
23290;SDS011;11814;44.686;10.842;2022-08-19T03:44:25;5.25;;;1.67;;
23290;SDS011;11814;44.686;10.842;2022-08-19T03:46:52;5.93;;;1.60;;
23290;SDS011;11814;44.686;10.842;2022-08-19T03:49:20;6.63;;;1.77;;
23290;SDS011;11814;44.686;10.842;2022-08-19T03:51:47;6.43;;;1.90;;
23290;SDS011;11814;44.686;10.842;2022-08-19T03:54:14;7.32;;;2.35;;
23290;SDS011;11814;44.686;10.842;2022-08-19T03:56:41;8.13;;;2.35;;
23290;SDS011;11814;44.686;10.842;2022-08-19T03:59:15;5.28;;;1.90;;
23290;SDS011;11814;44.686;10.842;2022-08-19T04:01:43;4.90;;;1.83;;
23290;SDS011;11814;44.686;10.842;2022-08-19T04:04:09;4.38;;;1.70;;
23290;SDS011;11814;44.686;10.842;2022-08-19T04:06:35;5.05;;;1.70;;
23290;SDS011;11814;44.686;10.842;2022-08-19T04:09:03;3.95;;;1.63;;
23290;SDS011;11814;44.686;10.842;2022-08-19T04:11:33;6.80;;;1.75;;
23290;SDS011;11814;44.686;10.842;2022-08-19T04:14:01;4.00;;;1.70;;
23290;SDS011;11814;44.686;10.842;2022-08-19T04:16:27;7.35;;;2.25;;
23290;SDS011;11814;44.686;10.842;2022-08-19T04:18:53;9.60;;;2.30;;
23290;SDS011;11814;44.686;10.842;2022-08-19T04:21:22;5.68;;;2.13;;
23290;SDS011;11814;44.686;10.842;2022-08-19T04:23:51;6.93;;;2.88;;
23290;SDS011;11814;44.686;10.842;2022-08-19T04:26:18;7.03;;;3.50;;
23290;SDS011;11814;44.686;10.842;2022-08-19T04:28:47;11.75;;;4.65;;
23290;SDS011;11814;44.686;10.842;2022-08-19T04:31:14;13.43;;;6.70;;
23290;SDS011;11814;44.686;10.842;2022-08-19T04:33:42;13.93;;;7.00;;
23290;SDS011;11814;44.686;10.842;2022-08-19T04:36:15;13.38;;;7.72;;
23290;SDS011;11814;44.686;10.842;2022-08-19T04:38:49;14.80;;;7.53;;
23290;SDS011;11814;44.686;10.842;2022-08-19T04:41:18;13.80;;;6.80;;
23290;SDS011;11814;44.686;10.842;2022-08-19T04:44:02;16.75;;;7.88;;
23290;SDS011;11814;44.686;10.842;2022-08-19T04:46:28;18.42;;;8.70;;
23290;SDS011;11814;44.686;10.842;2022-08-19T04:48:56;17.25;;;8.77;;
23290;SDS011;11814;44.686;10.842;2022-08-19T04:51:22;20.48;;;8.90;;
23290;SDS011;11814;44.686;10.842;2022-08-19T04:53:48;18.13;;;7.40;;
23290;SDS011;11814;44.686;10.842;2022-08-19T04:56:14;23.45;;;8.60;;
23290;SDS011;11814;44.686;10.842;2022-08-19T04:58:42;19.83;;;8.00;;
23290;SDS011;11814;44.686;10.842;2022-08-19T05:01:11;16.35;;;7.05;;
23290;SDS011;11814;44.686;10.842;2022-08-19T05:03:38;14.43;;;6.57;;
23290;SDS011;11814;44.686;10.842;2022-08-19T05:06:05;15.10;;;5.15;;
23290;SDS011;11814;44.686;10.842;2022-08-19T05:08:32;12.70;;;4.70;;
23290;SDS011;11814;44.686;10.842;2022-08-19T05:10:59;9.10;;;4.00;;
23290;SDS011;11814;44.686;10.842;2022-08-19T05:13:25;7.43;;;2.60;;
23290;SDS011;11814;44.686;10.842;2022-08-19T05:15:58;7.82;;;1.83;;
23290;SDS011;11814;44.686;10.842;2022-08-19T05:18:24;7.60;;;1.67;;
23290;SDS011;11814;44.686;10.842;2022-08-19T05:21:13;3.53;;;1.23;;
23290;SDS011;11814;44.686;10.842;2022-08-19T05:24:00;4.47;;;1.70;;
23290;SDS011;11814;44.686;10.842;2022-08-19T05:26:27;5.82;;;2.10;;
23290;SDS011;11814;44.686;10.842;2022-08-19T05:28:53;5.35;;;2.30;;
23290;SDS011;11814;44.686;10.842;2022-08-19T05:31:19;4.35;;;1.75;;
23290;SDS011;11814;44.686;10.842;2022-08-19T05:33:45;4.32;;;1.52;;
23290;SDS011;11814;44.686;10.842;2022-08-19T05:36:11;4.95;;;2.00;;
23290;SDS011;11814;44.686;10.842;2022-08-19T05:38:37;3.90;;;2.05;;
23290;SDS011;11814;44.686;10.842;2022-08-19T05:41:09;3.45;;;1.40;;
23290;SDS011;11814;44.686;10.842;2022-08-19T05:43:36;5.15;;;1.83;;
23290;SDS011;11814;44.686;10.842;2022-08-19T05:46:03;4.93;;;1.60;;
23290;SDS011;11814;44.686;10.842;2022-08-19T05:48:31;4.85;;;1.30;;
23290;SDS011;11814;44.686;10.842;2022-08-19T05:51:06;2.42;;;0.95;;
23290;SDS011;11814;44.686;10.842;2022-08-19T05:53:34;3.58;;;1.23;;
23290;SDS011;11814;44.686;10.842;2022-08-19T05:56:07;4.60;;;1.45;;
23290;SDS011;11814;44.686;10.842;2022-08-19T05:58:36;3.60;;;1.00;;
23290;SDS011;11814;44.686;10.842;2022-08-19T06:01:10;5.13;;;1.23;;
23290;SDS011;11814;44.686;10.842;2022-08-19T06:03:38;4.43;;;1.40;;
23290;SDS011;11814;44.686;10.842;2022-08-19T06:06:05;4.60;;;1.42;;
23290;SDS011;11814;44.686;10.842;2022-08-19T06:08:32;6.85;;;1.45;;
23290;SDS011;11814;44.686;10.842;2022-08-19T06:11:11;2.38;;;0.80;;
23290;SDS011;11814;44.686;10.842;2022-08-19T06:13:45;2.78;;;0.70;;
23290;SDS011;11814;44.686;10.842;2022-08-19T06:16:15;3.40;;;0.70;;
23290;SDS011;11814;44.686;10.842;2022-08-19T06:18:53;3.47;;;0.50;;
23290;SDS011;11814;44.686;10.842;2022-08-19T06:21:24;3.55;;;0.63;;
23290;SDS011;11814;44.686;10.842;2022-08-19T06:23:52;2.13;;;0.40;;
23290;SDS011;11814;44.686;10.842;2022-08-19T06:26:19;2.00;;;0.20;;
23290;SDS011;11814;44.686;10.842;2022-08-19T06:28:46;1.02;;;0.30;;
23290;SDS011;11814;44.686;10.842;2022-08-19T06:31:13;2.53;;;0.30;;
23290;SDS011;11814;44.686;10.842;2022-08-19T06:33:45;3.97;;;0.30;;
23290;SDS011;11814;44.686;10.842;2022-08-19T06:36:25;0.88;;;0.22;;
23290;SDS011;11814;44.686;10.842;2022-08-19T06:38:56;1.77;;;0.30;;
23290;SDS011;11814;44.686;10.842;2022-08-19T06:41:26;0.50;;;0.22;;
23290;SDS011;11814;44.686;10.842;2022-08-19T06:43:53;0.93;;;0.30;;
23290;SDS011;11814;44.686;10.842;2022-08-19T06:46:20;1.13;;;0.30;;
23290;SDS011;11814;44.686;10.842;2022-08-19T06:48:46;2.35;;;0.40;;
23290;SDS011;11814;44.686;10.842;2022-08-19T06:51:13;1.55;;;0.32;;
23290;SDS011;11814;44.686;10.842;2022-08-19T06:53:40;2.95;;;0.50;;
23290;SDS011;11814;44.686;10.842;2022-08-19T06:56:10;0.98;;;0.20;;
23290;SDS011;11814;44.686;10.842;2022-08-19T06:58:38;3.20;;;0.32;;
23290;SDS011;11814;44.686;10.842;2022-08-19T07:01:04;1.33;;;0.40;;
23290;SDS011;11814;44.686;10.842;2022-08-19T07:03:30;2.28;;;0.45;;
23290;SDS011;11814;44.686;10.842;2022-08-19T07:06:02;1.10;;;0.40;;
23290;SDS011;11814;44.686;10.842;2022-08-19T07:08:32;2.97;;;0.40;;
23290;SDS011;11814;44.686;10.842;2022-08-19T07:10:59;1.20;;;0.40;;
23290;SDS011;11814;44.686;10.842;2022-08-19T07:13:25;1.45;;;0.40;;
23290;SDS011;11814;44.686;10.842;2022-08-19T07:15:51;1.65;;;0.40;;
23290;SDS011;11814;44.686;10.842;2022-08-19T07:18:17;2.08;;;0.45;;
23290;SDS011;11814;44.686;10.842;2022-08-19T07:20:44;1.25;;;0.38;;
23290;SDS011;11814;44.686;10.842;2022-08-19T07:23:10;1.42;;;0.30;;
23290;SDS011;11814;44.686;10.842;2022-08-19T07:25:37;1.42;;;0.50;;
23290;SDS011;11814;44.686;10.842;2022-08-19T07:28:03;2.75;;;0.55;;
23290;SDS011;11814;44.686;10.842;2022-08-19T07:30:29;0.93;;;0.30;;
23290;SDS011;11814;44.686;10.842;2022-08-19T07:32:55;2.47;;;0.40;;
23290;SDS011;11814;44.686;10.842;2022-08-19T07:35:21;1.70;;;0.50;;
23290;SDS011;11814;44.686;10.842;2022-08-19T07:37:48;0.70;;;0.35;;
23290;SDS011;11814;44.686;10.842;2022-08-19T07:40:14;1.58;;;0.38;;
23290;SDS011;11814;44.686;10.842;2022-08-19T07:42:40;2.55;;;0.60;;
23290;SDS011;11814;44.686;10.842;2022-08-19T07:45:06;1.52;;;0.30;;
23290;SDS011;11814;44.686;10.842;2022-08-19T07:47:32;1.67;;;0.38;;
23290;SDS011;11814;44.686;10.842;2022-08-19T07:49:58;2.83;;;0.50;;
23290;SDS011;11814;44.686;10.842;2022-08-19T07:52:24;1.73;;;0.38;;
23290;SDS011;11814;44.686;10.842;2022-08-19T07:54:50;3.33;;;0.40;;
23290;SDS011;11814;44.686;10.842;2022-08-19T07:57:16;2.90;;;0.40;;
23290;SDS011;11814;44.686;10.842;2022-08-19T07:59:43;1.50;;;0.50;;
23290;SDS011;11814;44.686;10.842;2022-08-19T08:02:09;1.05;;;0.40;;
23290;SDS011;11814;44.686;10.842;2022-08-19T08:04:35;3.50;;;0.40;;
23290;SDS011;11814;44.686;10.842;2022-08-19T08:07:19;0.63;;;0.50;;
23290;SDS011;11814;44.686;10.842;2022-08-19T08:10:04;1.48;;;0.52;;
23290;SDS011;11814;44.686;10.842;2022-08-19T08:12:33;1.58;;;0.52;;
23290;SDS011;11814;44.686;10.842;2022-08-19T08:15:07;1.55;;;0.40;;
23290;SDS011;11814;44.686;10.842;2022-08-19T08:17:36;1.30;;;0.60;;
23290;SDS011;11814;44.686;10.842;2022-08-19T08:20:03;1.40;;;0.50;;
23290;SDS011;11814;44.686;10.842;2022-08-19T08:22:32;1.95;;;0.75;;
23290;SDS011;11814;44.686;10.842;2022-08-19T08:25:18;0.95;;;0.50;;
23290;SDS011;11814;44.686;10.842;2022-08-19T08:27:45;2.35;;;0.70;;
23290;SDS011;11814;44.686;10.842;2022-08-19T08:30:17;1.50;;;0.65;;
23290;SDS011;11814;44.686;10.842;2022-08-19T08:32:48;2.50;;;0.77;;
23290;SDS011;11814;44.686;10.842;2022-08-19T08:35:15;1.45;;;0.75;;
23290;SDS011;11814;44.686;10.842;2022-08-19T08:37:44;1.88;;;0.68;;
23290;SDS011;11814;44.686;10.842;2022-08-19T08:40:18;3.17;;;0.60;;
23290;SDS011;11814;44.686;10.842;2022-08-19T08:45:50;2.50;;;0.80;;
23290;SDS011;11814;44.686;10.842;2022-08-19T08:48:44;1.73;;;0.98;;
23290;SDS011;11814;44.686;10.842;2022-08-19T08:51:19;1.13;;;0.55;;
23290;SDS011;11814;44.686;10.842;2022-08-19T08:53:49;1.05;;;0.50;;
23290;SDS011;11814;44.686;10.842;2022-08-19T08:56:19;2.67;;;0.50;;
23290;SDS011;11814;44.686;10.842;2022-08-19T08:58:54;2.00;;;0.52;;
23290;SDS011;11814;44.686;10.842;2022-08-19T09:01:28;2.05;;;0.60;;
23290;SDS011;11814;44.686;10.842;2022-08-19T09:03:54;0.82;;;0.38;;
23290;SDS011;11814;44.686;10.842;2022-08-19T09:06:40;1.15;;;0.40;;
23290;SDS011;11814;44.686;10.842;2022-08-19T09:09:18;2.05;;;0.50;;
23290;SDS011;11814;44.686;10.842;2022-08-19T09:14:34;2.80;;;0.52;;
23290;SDS011;11814;44.686;10.842;2022-08-19T09:17:06;2.25;;;0.68;;
23290;SDS011;11814;44.686;10.842;2022-08-19T09:19:56;3.80;;;0.50;;
23290;SDS011;11814;44.686;10.842;2022-08-19T09:22:22;2.90;;;0.60;;
23290;SDS011;11814;44.686;10.842;2022-08-19T09:24:50;2.05;;;0.63;;
23290;SDS011;11814;44.686;10.842;2022-08-19T09:27:20;3.75;;;0.63;;
23290;SDS011;11814;44.686;10.842;2022-08-19T09:29:48;3.88;;;0.68;;
23290;SDS011;11814;44.686;10.842;2022-08-19T09:32:14;3.05;;;0.60;;
23290;SDS011;11814;44.686;10.842;2022-08-19T09:34:40;1.95;;;0.50;;
23290;SDS011;11814;44.686;10.842;2022-08-19T09:37:06;3.53;;;0.60;;
23290;SDS011;11814;44.686;10.842;2022-08-19T09:39:32;2.33;;;0.55;;
23290;SDS011;11814;44.686;10.842;2022-08-19T09:41:58;3.63;;;0.52;;
23290;SDS011;11814;44.686;10.842;2022-08-19T09:44:23;2.30;;;0.47;;
23290;SDS011;11814;44.686;10.842;2022-08-19T09:46:49;3.80;;;0.82;;
23290;SDS011;11814;44.686;10.842;2022-08-19T09:49:16;2.97;;;0.60;;
23290;SDS011;11814;44.686;10.842;2022-08-19T09:51:44;2.45;;;0.60;;
23290;SDS011;11814;44.686;10.842;2022-08-19T09:54:09;4.03;;;0.65;;
23290;SDS011;11814;44.686;10.842;2022-08-19T09:56:35;1.48;;;0.50;;
23290;SDS011;11814;44.686;10.842;2022-08-19T09:59:01;2.25;;;0.43;;
23290;SDS011;11814;44.686;10.842;2022-08-19T10:01:29;1.52;;;0.30;;
23290;SDS011;11814;44.686;10.842;2022-08-19T10:03:56;2.35;;;0.47;;
23290;SDS011;11814;44.686;10.842;2022-08-19T10:06:25;2.03;;;0.40;;
23290;SDS011;11814;44.686;10.842;2022-08-19T10:08:55;4.38;;;0.45;;
23290;SDS011;11814;44.686;10.842;2022-08-19T10:11:21;3.08;;;0.50;;
23290;SDS011;11814;44.686;10.842;2022-08-19T10:13:47;2.65;;;0.40;;
23290;SDS011;11814;44.686;10.842;2022-08-19T10:16:17;1.88;;;0.40;;
23290;SDS011;11814;44.686;10.842;2022-08-19T10:18:46;1.40;;;0.32;;
23290;SDS011;11814;44.686;10.842;2022-08-19T10:21:13;3.17;;;0.50;;
23290;SDS011;11814;44.686;10.842;2022-08-19T10:23:45;2.40;;;0.40;;
23290;SDS011;11814;44.686;10.842;2022-08-19T10:26:14;1.30;;;0.40;;
23290;SDS011;11814;44.686;10.842;2022-08-19T10:28:44;2.25;;;0.50;;
23290;SDS011;11814;44.686;10.842;2022-08-19T10:31:12;2.65;;;0.52;;
23290;SDS011;11814;44.686;10.842;2022-08-19T10:33:42;3.60;;;0.55;;
23290;SDS011;11814;44.686;10.842;2022-08-19T10:36:10;2.92;;;0.65;;
23290;SDS011;11814;44.686;10.842;2022-08-19T10:38:42;2.35;;;0.52;;
23290;SDS011;11814;44.686;10.842;2022-08-19T10:41:14;2.30;;;0.40;;
23290;SDS011;11814;44.686;10.842;2022-08-19T10:43:47;4.13;;;0.77;;
23290;SDS011;11814;44.686;10.842;2022-08-19T10:46:15;3.05;;;0.35;;
23290;SDS011;11814;44.686;10.842;2022-08-19T10:48:42;2.40;;;0.55;;
23290;SDS011;11814;44.686;10.842;2022-08-19T10:51:09;2.35;;;0.40;;
23290;SDS011;11814;44.686;10.842;2022-08-19T10:53:53;1.30;;;0.30;;
23290;SDS011;11814;44.686;10.842;2022-08-19T10:56:20;0.85;;;0.17;;
23290;SDS011;11814;44.686;10.842;2022-08-19T10:59:05;1.63;;;0.30;;
23290;SDS011;11814;44.686;10.842;2022-08-19T11:01:31;2.45;;;0.40;;
23290;SDS011;11814;44.686;10.842;2022-08-19T11:03:59;1.90;;;0.32;;
23290;SDS011;11814;44.686;10.842;2022-08-19T11:06:26;1.20;;;0.35;;
23290;SDS011;11814;44.686;10.842;2022-08-19T11:08:53;2.80;;;0.40;;
23290;SDS011;11814;44.686;10.842;2022-08-19T11:11:19;1.90;;;0.43;;
23290;SDS011;11814;44.686;10.842;2022-08-19T11:13:47;4.03;;;0.60;;
23290;SDS011;11814;44.686;10.842;2022-08-19T11:16:18;1.05;;;0.30;;
23290;SDS011;11814;44.686;10.842;2022-08-19T11:18:51;1.40;;;0.40;;
23290;SDS011;11814;44.686;10.842;2022-08-19T11:21:26;2.17;;;0.47;;
23290;SDS011;11814;44.686;10.842;2022-08-19T11:23:55;2.95;;;0.60;;
23290;SDS011;11814;44.686;10.842;2022-08-19T11:26:22;2.17;;;0.50;;
23290;SDS011;11814;44.686;10.842;2022-08-19T11:28:49;2.72;;;0.70;;
23290;SDS011;11814;44.686;10.842;2022-08-19T11:31:22;1.20;;;0.40;;
23290;SDS011;11814;44.686;10.842;2022-08-19T11:33:49;3.35;;;0.60;;
23290;SDS011;11814;44.686;10.842;2022-08-19T11:36:16;2.08;;;0.45;;
23290;SDS011;11814;44.686;10.842;2022-08-19T11:38:42;1.85;;;0.50;;
23290;SDS011;11814;44.686;10.842;2022-08-19T11:41:08;2.80;;;0.60;;
23290;SDS011;11814;44.686;10.842;2022-08-19T11:43:36;2.70;;;0.52;;
23290;SDS011;11814;44.686;10.842;2022-08-19T11:46:05;2.15;;;0.40;;
23290;SDS011;11814;44.686;10.842;2022-08-19T11:48:32;1.30;;;0.30;;
23290;SDS011;11814;44.686;10.842;2022-08-19T11:51:02;3.15;;;0.30;;
23290;SDS011;11814;44.686;10.842;2022-08-19T11:53:31;1.38;;;0.30;;
23290;SDS011;11814;44.686;10.842;2022-08-19T11:55:56;3.28;;;0.45;;
23290;SDS011;11814;44.686;10.842;2022-08-19T11:58:23;0.80;;;0.30;;
23290;SDS011;11814;44.686;10.842;2022-08-19T12:00:50;1.35;;;0.40;;
23290;SDS011;11814;44.686;10.842;2022-08-19T12:03:16;1.25;;;0.20;;
23290;SDS011;11814;44.686;10.842;2022-08-19T12:05:43;2.20;;;0.40;;
23290;SDS011;11814;44.686;10.842;2022-08-19T12:08:09;3.20;;;0.30;;
23290;SDS011;11814;44.686;10.842;2022-08-19T12:10:37;3.17;;;0.40;;
23290;SDS011;11814;44.686;10.842;2022-08-19T12:13:04;1.05;;;0.45;;
23290;SDS011;11814;44.686;10.842;2022-08-19T12:15:35;2.33;;;0.60;;
23290;SDS011;11814;44.686;10.842;2022-08-19T12:18:01;1.83;;;0.32;;
23290;SDS011;11814;44.686;10.842;2022-08-19T12:20:28;2.05;;;0.20;;
23290;SDS011;11814;44.686;10.842;2022-08-19T12:22:54;1.52;;;0.43;;
23290;SDS011;11814;44.686;10.842;2022-08-19T12:25:19;1.40;;;0.30;;
23290;SDS011;11814;44.686;10.842;2022-08-19T12:27:45;1.02;;;0.30;;
23290;SDS011;11814;44.686;10.842;2022-08-19T12:30:12;1.73;;;0.20;;
23290;SDS011;11814;44.686;10.842;2022-08-19T12:32:38;3.35;;;0.20;;
23290;SDS011;11814;44.686;10.842;2022-08-19T12:35:05;1.20;;;0.22;;
23290;SDS011;11814;44.686;10.842;2022-08-19T12:37:34;1.98;;;0.20;;
23290;SDS011;11814;44.686;10.842;2022-08-19T12:39:59;1.17;;;0.20;;
23290;SDS011;11814;44.686;10.842;2022-08-19T12:42:25;2.38;;;0.32;;
23290;SDS011;11814;44.686;10.842;2022-08-19T12:44:51;2.53;;;0.35;;
23290;SDS011;11814;44.686;10.842;2022-08-19T12:47:17;1.85;;;0.20;;
23290;SDS011;11814;44.686;10.842;2022-08-19T12:49:43;1.80;;;0.10;;
23290;SDS011;11814;44.686;10.842;2022-08-19T12:52:10;2.60;;;0.30;;
23290;SDS011;11814;44.686;10.842;2022-08-19T12:54:36;1.20;;;0.20;;
23290;SDS011;11814;44.686;10.842;2022-08-19T12:57:06;1.45;;;0.10;;
23290;SDS011;11814;44.686;10.842;2022-08-19T12:59:33;1.30;;;0.28;;
23290;SDS011;11814;44.686;10.842;2022-08-19T13:01:59;1.05;;;0.13;;
23290;SDS011;11814;44.686;10.842;2022-08-19T13:04:25;2.17;;;0.40;;
23290;SDS011;11814;44.686;10.842;2022-08-19T13:06:51;1.17;;;0.20;;
23290;SDS011;11814;44.686;10.842;2022-08-19T13:09:16;1.38;;;0.20;;
23290;SDS011;11814;44.686;10.842;2022-08-19T13:11:42;1.30;;;0.30;;
23290;SDS011;11814;44.686;10.842;2022-08-19T13:14:08;1.02;;;0.25;;
23290;SDS011;11814;44.686;10.842;2022-08-19T13:16:36;1.13;;;0.20;;
23290;SDS011;11814;44.686;10.842;2022-08-19T13:19:03;1.25;;;0.38;;
23290;SDS011;11814;44.686;10.842;2022-08-19T13:21:30;1.55;;;0.17;;
23290;SDS011;11814;44.686;10.842;2022-08-19T13:23:56;1.33;;;0.30;;
23290;SDS011;11814;44.686;10.842;2022-08-19T13:26:22;0.68;;;0.20;;
23290;SDS011;11814;44.686;10.842;2022-08-19T13:28:48;0.95;;;0.20;;
23290;SDS011;11814;44.686;10.842;2022-08-19T13:31:33;0.88;;;0.30;;
23290;SDS011;11814;44.686;10.842;2022-08-19T13:34:19;2.78;;;0.25;;
23290;SDS011;11814;44.686;10.842;2022-08-19T13:37:00;1.02;;;0.25;;
23290;SDS011;11814;44.686;10.842;2022-08-19T13:39:28;1.70;;;0.30;;
23290;SDS011;11814;44.686;10.842;2022-08-19T13:41:54;1.95;;;0.30;;
23290;SDS011;11814;44.686;10.842;2022-08-19T13:44:20;1.02;;;0.20;;
23290;SDS011;11814;44.686;10.842;2022-08-19T13:46:47;1.60;;;0.20;;
23290;SDS011;11814;44.686;10.842;2022-08-19T13:49:16;1.95;;;0.30;;
23290;SDS011;11814;44.686;10.842;2022-08-19T13:51:42;1.23;;;0.30;;
23290;SDS011;11814;44.686;10.842;2022-08-19T13:54:09;1.20;;;0.20;;
23290;SDS011;11814;44.686;10.842;2022-08-19T13:56:39;1.63;;;0.30;;
23290;SDS011;11814;44.686;10.842;2022-08-19T13:59:09;0.93;;;0.20;;
23290;SDS011;11814;44.686;10.842;2022-08-19T14:01:36;0.65;;;0.20;;
23290;SDS011;11814;44.686;10.842;2022-08-19T14:04:02;1.02;;;0.20;;
23290;SDS011;11814;44.686;10.842;2022-08-19T14:06:29;1.98;;;0.25;;
23290;SDS011;11814;44.686;10.842;2022-08-19T14:08:54;4.85;;;0.30;;
23290;SDS011;11814;44.686;10.842;2022-08-19T14:11:20;1.80;;;0.30;;
23290;SDS011;11814;44.686;10.842;2022-08-19T14:13:47;3.92;;;0.40;;
23290;SDS011;11814;44.686;10.842;2022-08-19T14:16:14;0.73;;;0.20;;
23290;SDS011;11814;44.686;10.842;2022-08-19T14:18:39;1.33;;;0.20;;
23290;SDS011;11814;44.686;10.842;2022-08-19T14:21:06;2.28;;;0.30;;
23290;SDS011;11814;44.686;10.842;2022-08-19T14:23:33;1.25;;;0.38;;
23290;SDS011;11814;44.686;10.842;2022-08-19T14:26:11;1.83;;;0.50;;
23290;SDS011;11814;44.686;10.842;2022-08-19T14:28:40;1.80;;;0.38;;
23290;SDS011;11814;44.686;10.842;2022-08-19T14:31:07;2.85;;;0.40;;
23290;SDS011;11814;44.686;10.842;2022-08-19T14:33:33;1.40;;;0.40;;
23290;SDS011;11814;44.686;10.842;2022-08-19T14:35:59;1.63;;;0.30;;
23290;SDS011;11814;44.686;10.842;2022-08-19T14:38:25;1.00;;;0.30;;
23290;SDS011;11814;44.686;10.842;2022-08-19T14:40:52;2.35;;;0.20;;
23290;SDS011;11814;44.686;10.842;2022-08-19T14:43:17;2.28;;;0.40;;
23290;SDS011;11814;44.686;10.842;2022-08-19T14:45:43;2.28;;;0.50;;